BLACK BUTTE (BLB)

Elevation: 426' · STONY CR basin · Operator: US Army Corps of Engineers

Provisional data, subject to change.
Query executed Tuesday at 10:21:44   clock

Select a sensor type for a plot of data.
Note: Reservoir Flows are daily averages.

Earlier

Date RES ELE    STORAGE    RES CHG    TOC STO    OUTFLOW    INFLOW    PPT INC    TEMP MN    TEMP MX    EVP PAN   
 FEET   AF   AF   AF   CFS   CFS   INCHES   DEG F   DEG F   INCHES  
06/23/2014 456.80 73261 -766 136200 340 -16 0.00 17 35 0.31
06/24/2014 456.57 72531 -730 136200 331 -5 0.00 18 36 0.33
06/25/2014 456.36 71869 -662 136200 311 -0 0.00 19 30 0.24
06/26/2014 456.15 71211 -658 136200 281 -23 0.00 17 28 0.28
06/27/2014 455.96 70618 -593 136200 259 -9 0.00 18 32 0.33
06/28/2014 455.83 70215 -403 136200 185 9 0.00 17 33 0.29
06/29/2014 455.76 69998 -217 136200 93 12 0.00 19 40 0.31
06/30/2014 455.70 69813 -185 136200 42 -15 0.01 25 46 0.36
07/01/2014 455.67 69720 -93 136200 14 1 0.00 22 37 0.34
07/02/2014 455.64 69628 -92 136200 14 -0 0.00 18 36 0.32
07/03/2014 455.51 69228 -400 136200 137 -33 0.00 20 36 0.32
07/04/2014 455.30 68584 -644 136200 229 -62 0.00 19 37 0.34
07/05/2014 455.08 67915 -669 136200 293 -13 0.00 16 37 0.31
07/06/2014 454.85 67219 -696 136200 308 -10 0.00 19 40 0.34
07/07/2014 454.61 66498 -721 136200 320 -13 0.00 24 37 0.31
07/08/2014 454.38 65812 -686 136200 324 5 0.00 26 38 0.29
07/09/2014 454.15 65131 -681 136200 304 -7 0.00 20 37 0.34
07/10/2014 453.94 64513 -618 136200 267 -13 0.00 17 34 0.32
07/11/2014 453.77 64016 -497 136200 196 -25 0.00 19 34 0.31
07/12/2014 453.65 63666 -350 136200 139 -9 0.00 17 36 0.31
07/13/2014 453.59 63492 -174 136200 77 19 0.00 19 38 0.31
07/14/2014 453.54 63347 -145 136200 26 -13 0.00 23 42 0.37
07/15/2014 453.52 63289 -58 136200 -- -- -- -- -- --
07/16/2014 453.49 63202 -87 136200 11 -11 0.00 21 33 0.24
07/17/2014 453.35 62798 -404 136200 184 6 0.00 19 32 0.28
07/18/2014 453.13 62167 -631 136200 270 -22 0.00 18 32 0.29
07/19/2014 452.90 61512 -655 136200 295 -6 0.00 19 35 0.31
07/20/2014 452.65 60805 -707 136200 313 -15 0.00 20 32 0.31
07/21/2014 452.40 60104 -701 136200 335 -4 0.00 18 29 0.16
07/22/2014 -- -- -- -- -- -- -- -- -- --

Later | Latest

Warning! This data is preliminary and subject to revision.

Download Data Now Download Data Now | Show BLB Map | Plot BLB Data | 1 Month BLB Data | Real-Time BLB Data | BLB Info